createdAt,value
2022-11-23T00:08:41.856Z,82.7
2022-11-23T00:23:51.477Z,82.5
2022-11-23T00:39:00.962Z,82.4
2022-11-23T00:54:10.266Z,82.9
2022-11-23T01:09:19.452Z,82.3
2022-11-23T01:24:29.025Z,82.8
2022-11-23T01:39:38.912Z,82.3
2022-11-23T01:54:48.352Z,82.1
2022-11-23T02:09:57.670Z,82.1
2022-11-23T02:25:06.915Z,82.6
2022-11-23T02:40:16.459Z,82.6
2022-11-23T02:55:25.875Z,82.3
2022-11-23T03:10:35.429Z,82.3
2022-11-23T03:25:45.233Z,82.2
2022-11-23T03:40:54.704Z,82.2
2022-11-23T03:56:06.959Z,82.1
2022-11-23T04:11:18.648Z,82.2
2022-11-23T04:26:28.440Z,82.3
2022-11-23T04:41:38.090Z,82.3
2022-11-23T04:56:47.233Z,82.4
2022-11-23T05:11:56.368Z,82.5
2022-11-23T05:27:06.890Z,82.4
2022-11-23T05:42:15.574Z,82.5
2022-11-23T05:57:25.864Z,82.5
2022-11-23T06:12:35.227Z,82.5
2022-11-23T06:27:44.533Z,82.5
2022-11-23T06:42:56.574Z,82.5
2022-11-23T06:58:06.505Z,82.6
2022-11-23T07:13:15.803Z,82.7
2022-11-23T07:28:25.601Z,82.7
2022-11-23T07:43:34.840Z,82.6
2022-11-23T07:58:47.450Z,82.4
2022-11-23T08:13:56.900Z,82.5
2022-11-23T08:29:06.687Z,82.4
2022-11-23T08:44:18.352Z,82.2
2022-11-23T08:59:28.050Z,82
2022-11-23T09:14:37.656Z,82
2022-11-23T09:29:47.314Z,81.8
2022-11-23T09:44:57.141Z,81.7
2022-11-23T10:00:07.985Z,81.6
2022-11-23T10:15:17.269Z,81.5
2022-11-23T10:30:27.506Z,81.2
2022-11-23T10:45:36.954Z,81.1
2022-11-23T11:00:46.675Z,80.7
2022-11-23T11:15:57.106Z,80.4
2022-11-23T11:31:07.667Z,80.2
2022-11-23T11:46:35.649Z,80.4
2022-11-23T12:01:48.461Z,80.5
2022-11-23T12:17:34.119Z,80.4
2022-11-23T12:32:49.439Z,80.2
2022-11-23T12:47:59.306Z,80.4
2022-11-23T13:03:08.648Z,80.2
2022-11-23T13:18:18.252Z,80.2
2022-11-23T13:33:40.883Z,80.5
2022-11-23T13:48:58.406Z,80.3
2022-11-23T14:04:08.549Z,80.2
2022-11-23T14:19:17.897Z,80.2
2022-11-23T14:34:27.242Z,80.6
2022-11-23T14:49:36.041Z,80.9
2022-11-23T15:04:48.908Z,81.1
2022-11-23T15:19:59.220Z,81.3
2022-11-23T15:35:08.790Z,81.4
2022-11-23T15:50:17.220Z,81.5
2022-11-23T16:05:26.505Z,81.7
2022-11-23T16:20:36.012Z,81.7
2022-11-23T16:35:45.537Z,81.7
2022-11-23T16:50:54.521Z,81.7
2022-11-23T17:06:03.664Z,81.8
2022-11-23T17:21:12.812Z,81.9
2022-11-23T17:36:22.266Z,82.2
2022-11-23T17:51:31.741Z,82.4
2022-11-23T18:06:40.954Z,82.5
2022-11-23T18:21:50.549Z,82.6
2022-11-23T18:36:59.711Z,82.7
2022-11-23T18:52:09.464Z,82.7
2022-11-23T19:07:28.051Z,82.5
2022-11-23T19:22:37.903Z,82.5
2022-11-23T19:37:47.402Z,82.3
2022-11-23T19:53:13.774Z,82.2
2022-11-23T20:08:23.629Z,81.9
2022-11-23T20:23:32.521Z,81.8
2022-11-23T20:38:41.977Z,81.7
2022-11-23T20:53:51.905Z,81.7
2022-11-23T21:09:01.227Z,81.6
2022-11-23T21:24:11.054Z,81.6
2022-11-23T21:39:21.053Z,81.5
2022-11-23T21:54:30.279Z,81.5
2022-11-23T22:09:40.217Z,81.5
2022-11-23T22:24:49.853Z,81.5
2022-11-23T22:39:59.516Z,81.6
2022-11-23T22:55:08.862Z,81.7
2022-11-23T23:10:18.429Z,81.7
2022-11-23T23:25:27.654Z,81.8
2022-11-23T23:40:37.099Z,81.9
2022-11-23T23:55:46.279Z,81.9
